KR-0318 weather

Hanhwa Resort Haeundae Heliport
Busan, Busan Gwang'yeogsi, South Korea

Public forecast

Using degrees Celsius for public forecast. Weather courtesy of forecast.io.

METAR (pilot weather report)

Closest report is Gimhae International Airport, 10.3 nm (19.0 km) W. Retrieved 2019/08/19 20:00 UTC (32 minutes ago):

RKPK 192000Z 32004KT 4800 BR SCT028 SCT200 25/22 Q1009

TAF (pilot weather forecast)

Closest forecast is Gimhae International Airport, 10.3 nm (19.0 km) W. Retrieved 2019/08/19 18:00 UTC (3 hours ago):

TAF RKPK 191700Z 1918/2024 03006KT 4800 BR SCT030 BKN200 TN24/1920Z TX30/2005Z BECMG 1920/1921 3200 BECMG 2000/2001 03008KT 4800 SCT030 SCT200 BECMG 2002/2003 9000 NSW BKN030 TEMPO 2005/2010 4800 -RA BR FEW015 OVC030